Time;durP1;ratioP1;P1;durP2;ratioP2;P2;SDS_P1;SDS_P2;PMS_P1;PMS_P2;Temp;Humidity;BMP_temperature;BMP_pressure;BME280_temperature;BME280_humidity;BME280_pressure;Samples;Min_cycle;Max_cycle;Signal;HPM_P1;HPM_P2
2021/01/29 00:00:24;;;;;;;5.88;2.58;;;23.00;83.10;;;;;;5012500;28;20053;-56
2021/01/29 00:02:56;;;;;;;7.28;2.00;;;23.10;83.10;;;;;;5012665;28;20028;-58
2021/01/29 00:05:27;;;;;;;8.27;2.40;;;23.00;83.00;;;;;;5012515;28;20038;-55
2021/01/29 00:07:54;;;;;;;5.50;2.17;;;23.10;83.20;;;;;;5012271;28;20096;-55
2021/01/29 00:10:25;;;;;;;5.15;1.80;;;23.10;83.60;;;;;;5012533;28;20030;-55
2021/01/29 00:12:53;;;;;;;5.30;2.08;;;23.10;83.00;;;;;;5011971;28;20076;-56
2021/01/29 00:15:21;;;;;;;6.72;2.47;;;23.10;82.90;;;;;;5011805;28;20030;-58
2021/01/29 00:17:49;;;;;;;8.68;3.10;;;23.10;82.90;;;;;;5011032;28;20022;-57
2021/01/29 00:20:25;;;;;;;11.10;3.13;;;23.10;83.00;;;;;;5012263;28;20369;-59
2021/01/29 00:22:53;;;;;;;7.53;2.33;;;23.10;82.90;;;;;;5012081;28;20046;-57
2021/01/29 00:25:25;;;;;;;6.53;2.20;;;23.10;83.00;;;;;;5010265;28;20093;-61
2021/01/29 00:27:52;;;;;;;8.10;2.40;;;23.10;83.00;;;;;;5012009;28;20034;-59
2021/01/29 00:30:21;;;;;;;6.90;2.38;;;23.10;83.00;;;;;;5011817;28;20026;-60
2021/01/29 00:32:50;;;;;;;6.68;2.50;;;23.10;83.00;;;;;;5012372;28;20032;-56
2021/01/29 00:35:19;;;;;;;7.03;2.28;;;23.10;83.10;;;;;;5012334;28;20564;-61
2021/01/29 00:37:47;;;;;;;7.95;2.58;;;23.10;83.20;;;;;;5011895;28;20482;-58
2021/01/29 00:40:15;;;;;;;8.50;2.67;;;23.10;83.10;;;;;;5012037;28;20054;-57
2021/01/29 00:42:42;;;;;;;7.88;2.22;;;23.10;83.10;;;;;;5011860;28;20034;-59
2021/01/29 00:45:15;;;;;;;8.38;2.50;;;23.20;83.00;;;;;;5011274;28;20028;-59
2021/01/29 00:47:42;;;;;;;7.95;2.55;;;23.20;82.90;;;;;;5012158;28;20407;-63
2021/01/29 00:50:11;;;;;;;7.47;2.58;;;23.20;83.10;;;;;;5011991;28;20416;-57
2021/01/29 00:52:38;;;;;;;6.57;2.13;;;23.20;83.00;;;;;;5002062;28;20044;-64
2021/01/29 00:55:07;;;;;;;7.63;2.63;;;23.20;83.30;;;;;;5008344;28;20034;-60
2021/01/29 00:57:35;;;;;;;9.75;2.88;;;23.20;83.50;;;;;;5006927;28;20107;-56
2021/01/29 01:00:04;;;;;;;8.00;2.20;;;23.20;83.30;;;;;;5006849;28;20037;-58
2021/01/29 01:02:32;;;;;;;8.65;2.22;;;23.20;83.30;;;;;;5011456;28;20363;-57
2021/01/29 01:04:59;;;;;;;8.63;2.47;;;23.20;83.40;;;;;;5013139;28;20304;-56
2021/01/29 01:07:27;;;;;;;6.70;2.28;;;23.20;83.10;;;;;;5013044;28;20400;-55
2021/01/29 01:09:54;;;;;;;7.90;2.55;;;23.20;83.30;;;;;;5015214;28;20022;-58
2021/01/29 01:12:22;;;;;;;7.22;2.15;;;23.20;83.20;;;;;;5015110;28;20041;-58
2021/01/29 01:14:49;;;;;;;6.55;2.05;;;23.20;83.80;;;;;;5014898;28;20108;-60
2021/01/29 01:17:17;;;;;;;7.35;2.03;;;23.20;84.00;;;;;;5015176;28;20376;-59
2021/01/29 01:19:45;;;;;;;6.75;2.30;;;23.20;83.30;;;;;;5014794;28;20084;-58
2021/01/29 01:22:12;;;;;;;10.48;2.60;;;23.20;83.30;;;;;;5015110;28;20026;-58
2021/01/29 01:24:40;;;;;;;7.32;2.63;;;23.20;83.40;;;;;;5014900;28;20096;-61
2021/01/29 01:27:25;;;;;;;7.53;2.67;;;23.20;83.40;;;;;;5014791;28;20025;-60
2021/01/29 01:29:52;;;;;;;5.97;2.33;;;23.20;83.30;;;;;;5014845;28;20030;-54
2021/01/29 01:32:19;;;;;;;6.75;2.63;;;23.20;83.50;;;;;;5015088;28;20352;-61
2021/01/29 01:34:47;;;;;;;5.55;2.10;;;23.20;83.50;;;;;;5013730;28;20492;-60
2021/01/29 01:37:14;;;;;;;6.40;1.90;;;23.20;83.50;;;;;;5014443;28;20095;-57
2021/01/29 01:39:41;;;;;;;7.50;1.98;;;23.20;83.50;;;;;;5014646;28;20022;-56
2021/01/29 01:42:09;;;;;;;4.05;2.53;;;23.20;83.50;;;;;;5013660;28;20020;-57
2021/01/29 01:44:43;;;;;;;6.97;2.25;;;23.20;83.40;;;;;;5014501;28;20056;-56
2021/01/29 01:47:27;;;;;;;10.73;3.35;;;23.20;83.50;;;;;;5014522;28;20105;-60
2021/01/29 01:50:00;;;;;;;6.22;2.47;;;23.20;83.50;;;;;;5014350;28;20108;-58
2021/01/29 01:52:37;;;;;;;7.60;1.90;;;23.20;83.50;;;;;;5014910;28;20034;-57
2021/01/29 01:55:10;;;;;;;8.43;2.28;;;23.30;83.60;;;;;;5014319;28;20037;-55
2021/01/29 01:57:40;;;;;;;5.88;2.15;;;23.30;83.50;;;;;;5014382;28;20113;-54
2021/01/29 02:00:18;;;;;;;5.28;2.17;;;23.20;83.50;;;;;;5014185;28;20455;-57
2021/01/29 02:02:48;;;;;;;6.15;2.22;;;23.30;83.50;;;;;;5014123;28;20037;-57
2021/01/29 02:05:29;;;;;;;5.72;2.03;;;23.30;83.30;;;;;;5014025;28;20036;-57
2021/01/29 02:08:02;;;;;;;6.80;2.13;;;23.30;83.20;;;;;;5014229;28;20021;-57
2021/01/29 02:10:32;;;;;;;7.63;2.33;;;23.30;83.30;;;;;;5014362;28;20025;-55
2021/01/29 02:13:04;;;;;;;7.40;2.75;;;23.30;83.30;;;;;;5028492;28;20034;-56
2021/01/29 02:15:35;;;;;;;6.75;2.30;;;23.30;83.40;;;;;;5013778;28;20209;-59
2021/01/29 02:18:23;;;;;;;7.97;1.88;;;23.30;83.30;;;;;;5014290;28;20057;-58
2021/01/29 02:21:27;;;;;;;7.32;3.13;;;23.30;83.20;;;;;;5013728;28;20029;-56
2021/01/29 02:24:19;;;;;;;5.75;2.33;;;23.30;83.20;;;;;;5013816;28;20058;-58
2021/01/29 02:27:27;;;;;;;9.95;2.65;;;23.30;83.20;;;;;;5013936;28;20026;-58
2021/01/29 02:30:16;;;;;;;6.10;2.17;;;23.30;83.30;;;;;;5001581;28;20379;-60
2021/01/29 02:33:15;;;;;;;6.03;2.25;;;23.30;83.40;;;;;;5013794;28;20030;-59
2021/01/29 02:36:12;;;;;;;6.35;2.20;;;23.30;83.30;;;;;;5013785;28;20105;-60
2021/01/29 02:39:17;;;;;;;7.47;2.92;;;23.30;83.30;;;;;;5013443;28;20030;-56
2021/01/29 02:42:07;;;;;;;6.47;2.40;;;23.30;83.30;;;;;;5013854;28;20147;-61
2021/01/29 02:45:07;;;;;;;6.43;1.92;;;23.30;83.30;;;;;;5013911;28;20018;-61
2021/01/29 02:47:48;;;;;;;6.93;1.80;;;23.30;83.50;;;;;;4994865;28;20034;-59
2021/01/29 02:50:26;;;;;;;7.88;2.55;;;23.30;83.40;;;;;;5013837;28;20097;-58
2021/01/29 02:53:22;;;;;;;6.15;1.95;;;23.30;83.50;;;;;;5013379;28;20034;-60
2021/01/29 02:56:00;;;;;;;6.65;2.67;;;23.30;83.50;;;;;;5013824;28;20037;-59
2021/01/29 02:58:40;;;;;;;7.05;2.50;;;23.30;83.60;;;;;;5013451;28;20167;-56
2021/01/29 03:01:18;;;;;;;6.28;2.20;;;23.30;83.50;;;;;;5013376;28;20030;-61
2021/01/29 03:04:03;;;;;;;4.75;2.13;;;23.30;83.60;;;;;;5013612;28;20026;-53
2021/01/29 03:07:02;;;;;;;7.20;2.72;;;23.30;83.60;;;;;;5013153;28;20021;-54
2021/01/29 03:09:36;;;;;;;9.05;2.70;;;23.30;83.60;;;;;;5005814;28;20030;-60
2021/01/29 03:12:09;;;;;;;7.45;2.38;;;23.30;83.90;;;;;;5012134;28;20084;-60
2021/01/29 03:15:20;;;;;;;7.40;2.63;;;23.30;83.90;;;;;;5012467;28;20038;-55
2021/01/29 03:18:00;;;;;;;4.68;1.85;;;23.30;83.80;;;;;;4990812;28;20041;-60
2021/01/29 03:20:32;;;;;;;7.18;2.22;;;23.30;83.90;;;;;;5011573;28;20029;-59
2021/01/29 03:23:08;;;;;;;5.88;2.28;;;23.30;84.00;;;;;;5011638;28;20110;-58
2021/01/29 03:25:40;;;;;;;6.45;2.03;;;23.30;83.90;;;;;;5012937;28;20068;-58
2021/01/29 03:28:13;;;;;;;8.07;2.40;;;23.30;83.90;;;;;;5013301;28;20026;-60
2021/01/29 03:30:45;;;;;;;8.73;2.85;;;23.30;83.90;;;;;;5012659;28;20109;-57
2021/01/29 03:33:15;;;;;;;6.38;2.30;;;23.30;84.00;;;;;;5012694;28;20088;-61
2021/01/29 03:35:57;;;;;;;5.88;2.40;;;23.30;84.00;;;;;;5011455;28;20502;-57
2021/01/29 03:38:32;;;;;;;6.78;2.70;;;23.30;84.70;;;;;;5012811;28;20033;-61
2021/01/29 03:41:10;;;;;;;9.13;2.80;;;23.30;84.30;;;;;;5012232;28;20097;-61
2021/01/29 03:43:48;;;;;;;6.15;2.47;;;23.30;84.10;;;;;;5012751;28;20080;-59
2021/01/29 03:46:29;;;;;;;7.47;2.85;;;23.30;84.10;;;;;;5012728;28;20468;-61
2021/01/29 03:49:18;;;;;;;7.55;2.30;;;23.30;84.30;;;;;;5012359;28;20104;-62
2021/01/29 03:51:55;;;;;;;6.50;2.78;;;23.30;84.20;;;;;;5011932;28;20460;-54
2021/01/29 03:54:42;;;;;;;9.35;2.60;;;23.30;84.40;;;;;;5010328;28;20062;-56
2021/01/29 03:58:06;;;;;;;6.85;2.65;;;23.30;84.40;;;;;;5011883;28;20082;-58
2021/01/29 04:00:42;;;;;;;5.38;2.05;;;23.30;84.40;;;;;;4989767;28;20048;-58
2021/01/29 04:03:17;;;;;;;5.15;2.22;;;23.30;84.40;;;;;;4990032;28;20385;-57
2021/01/29 04:05:56;;;;;;;5.60;2.20;;;23.30;84.40;;;;;;5003004;28;20086;-59
2021/01/29 04:08:47;;;;;;;5.47;2.10;;;23.30;84.50;;;;;;5007916;28;20034;-60
2021/01/29 04:11:21;;;;;;;6.82;2.80;;;23.20;84.40;;;;;;5011702;28;20051;-61
2021/01/29 04:13:57;;;;;;;6.78;2.25;;;23.30;84.70;;;;;;5011836;28;20034;-60
2021/01/29 04:16:46;;;;;;;6.63;2.13;;;23.20;84.70;;;;;;5011273;28;20032;-59
2021/01/29 04:19:34;;;;;;;5.68;2.35;;;23.20;84.70;;;;;;5011097;28;20038;-59
2021/01/29 04:22:22;;;;;;;6.03;2.17;;;23.30;84.70;;;;;;5011829;28;20032;-62
2021/01/29 04:24:59;;;;;;;7.85;2.30;;;23.30;84.70;;;;;;5011799;28;20125;-60
2021/01/29 04:27:30;;;;;;;7.40;2.60;;;23.30;84.70;;;;;;5010671;28;20117;-58
2021/01/29 04:30:04;;;;;;;8.35;2.58;;;23.30;84.80;;;;;;5011653;28;20026;-57
2021/01/29 04:32:38;;;;;;;7.10;2.20;;;23.20;84.80;;;;;;5011840;28;20113;-59
2021/01/29 04:35:08;;;;;;;10.60;2.47;;;23.30;84.80;;;;;;5015010;28;20037;-61
2021/01/29 04:37:41;;;;;;;7.65;2.80;;;23.20;84.90;;;;;;5017191;28;20018;-59
2021/01/29 04:40:28;;;;;;;7.15;2.55;;;23.20;84.70;;;;;;5017806;28;20026;-59
2021/01/29 04:43:44;;;;;;;6.50;2.10;;;23.20;84.70;;;;;;5017624;28;20032;-57
2021/01/29 04:46:36;;;;;;;7.40;2.60;;;23.20;84.60;;;;;;4995402;28;20038;-57
2021/01/29 04:49:24;;;;;;;6.55;2.70;;;23.20;84.70;;;;;;5017311;28;20080;-60
2021/01/29 04:52:28;;;;;;;6.68;2.47;;;23.30;84.70;;;;;;5016597;28;20140;-57
2021/01/29 04:55:27;;;;;;;7.40;2.33;;;23.20;84.70;;;;;;5016101;28;20491;-57
2021/01/29 04:58:03;;;;;;;9.23;2.72;;;23.30;84.80;;;;;;5018093;28;20072;-58
2021/01/29 05:00:44;;;;;;;4.85;2.45;;;23.20;84.70;;;;;;5017703;28;20053;-59
2021/01/29 05:03:47;;;;;;;5.25;1.83;;;23.20;84.80;;;;;;5017544;28;20073;-56
2021/01/29 05:06:41;;;;;;;7.28;2.25;;;23.30;84.90;;;;;;5017734;28;20098;-57
2021/01/29 05:09:27;;;;;;;5.50;1.83;;;23.30;84.90;;;;;;5017643;28;20060;-59
2021/01/29 05:12:00;;;;;;;6.30;2.17;;;23.30;84.90;;;;;;5017647;28;20499;-60
2021/01/29 05:14:48;;;;;;;6.35;2.20;;;23.20;85.10;;;;;;5017891;28;20045;-54
2021/01/29 05:17:27;;;;;;;6.90;2.67;;;23.20;85.00;;;;;;5016395;28;20112;-54
2021/01/29 05:20:31;;;;;;;7.20;2.45;;;23.20;85.00;;;;;;5017375;28;20511;-57
2021/01/29 05:23:09;;;;;;;4.57;1.85;;;23.20;85.00;;;;;;5018013;28;20045;-57
2021/01/29 05:26:04;;;;;;;6.32;2.22;;;23.20;85.00;;;;;;5017556;28;20049;-60
2021/01/29 05:29:26;;;;;;;6.25;2.63;;;23.20;85.00;;;;;;5017808;28;20037;-59
2021/01/29 05:32:11;;;;;;;6.00;2.13;;;23.20;85.00;;;;;;4976516;28;20093;-62
2021/01/29 05:34:44;;;;;;;4.60;1.98;;;23.20;85.00;;;;;;4976311;28;20038;-57
2021/01/29 05:37:45;;;;;;;6.88;2.47;;;23.20;85.30;;;;;;5007798;28;20182;-55
2021/01/29 05:40:37;;;;;;;5.88;2.40;;;23.20;85.10;;;;;;5017567;28;20037;-58
2021/01/29 05:43:25;;;;;;;5.18;1.90;;;23.20;85.20;;;;;;5017251;28;20030;-59
2021/01/29 05:45:55;;;;;;;7.45;2.05;;;23.20;85.20;;;;;;5016694;28;20421;-58
2021/01/29 05:48:56;;;;;;;4.07;2.00;;;23.20;85.20;;;;;;5014801;28;20396;-60
2021/01/29 05:51:58;;;;;;;6.03;1.90;;;23.20;85.20;;;;;;5014434;28;20050;-60
2021/01/29 05:55:06;;;;;;;7.40;2.40;;;23.20;85.20;;;;;;5013957;28;20137;-58
2021/01/29 05:58:13;;;;;;;6.07;2.33;;;23.20;85.20;;;;;;5014025;28;20057;-63
2021/01/29 06:01:03;;;;;;;4.15;2.08;;;23.20;85.30;;;;;;5014566;28;20025;-58
2021/01/29 06:03:56;;;;;;;5.85;2.13;;;23.20;85.30;;;;;;5014363;28;20046;-58
2021/01/29 06:06:33;;;;;;;4.65;2.00;;;23.20;85.30;;;;;;5014053;28;20109;-59
2021/01/29 06:09:08;;;;;;;4.93;1.92;;;23.20;85.30;;;;;;5014419;28;20018;-58
2021/01/29 06:12:01;;;;;;;5.82;2.30;;;23.20;85.40;;;;;;5014078;28;20038;-55
2021/01/29 06:15:02;;;;;;;5.60;1.98;;;23.20;85.40;;;;;;4995838;28;20141;-57
2021/01/29 06:17:48;;;;;;;5.15;2.05;;;23.20;85.40;;;;;;5014156;28;20310;-57
2021/01/29 06:20:47;;;;;;;6.13;2.15;;;23.10;85.50;;;;;;5012680;28;20511;-56
2021/01/29 06:23:18;;;;;;;4.68;2.33;;;23.20;85.50;;;;;;5013570;28;20109;-51
2021/01/29 06:25:54;;;;;;;5.95;2.08;;;23.20;85.60;;;;;;5013999;28;20057;-60
2021/01/29 06:28:27;;;;;;;7.15;2.33;;;23.20;85.60;;;;;;5012065;28;20030;-57
2021/01/29 06:31:25;;;;;;;7.88;2.47;;;23.20;85.70;;;;;;5013489;28;20044;-55
2021/01/29 06:34:14;;;;;;;6.55;2.25;;;23.10;85.60;;;;;;5013492;28;20122;-59
2021/01/29 06:36:47;;;;;;;5.97;2.03;;;23.20;85.70;;;;;;5013712;28;20342;-56
2021/01/29 06:39:23;;;;;;;4.97;2.65;;;23.10;85.60;;;;;;5013427;28;20025;-57
2021/01/29 06:41:56;;;;;;;4.72;2.30;;;23.10;85.70;;;;;;5013382;28;20033;-58
2021/01/29 06:44:48;;;;;;;4.07;1.55;;;23.10;85.80;;;;;;5013558;28;20030;-59
2021/01/29 06:47:30;;;;;;;5.20;2.60;;;23.10;85.80;;;;;;5013522;28;20030;-60
2021/01/29 06:50:07;;;;;;;4.60;1.88;;;23.10;85.90;;;;;;5013666;28;20267;-59
2021/01/29 06:52:50;;;;;;;9.68;2.55;;;23.10;85.90;;;;;;5013262;28;20037;-56
2021/01/29 06:55:41;;;;;;;6.85;2.35;;;23.10;85.90;;;;;;5012997;28;20030;-57
2021/01/29 06:58:32;;;;;;;8.52;2.45;;;23.10;85.90;;;;;;5012550;28;20026;-61
2021/01/29 07:01:36;;;;;;;4.90;1.92;;;23.10;85.90;;;;;;5013193;28;20026;-57
2021/01/29 07:04:34;;;;;;;5.22;1.70;;;23.10;85.90;;;;;;5013205;28;20385;-62
2021/01/29 07:07:10;;;;;;;6.93;2.15;;;23.10;85.90;;;;;;5005920;28;20056;-58
2021/01/29 07:10:21;;;;;;;6.35;2.40;;;23.10;86.00;;;;;;4992841;28;20019;-58
2021/01/29 07:13:01;;;;;;;4.25;1.70;;;23.10;86.00;;;;;;4987713;28;20503;-60
2021/01/29 07:15:34;;;;;;;4.80;1.80;;;23.10;86.00;;;;;;4992931;28;20033;-57
2021/01/29 07:18:16;;;;;;;5.18;1.85;;;23.10;86.00;;;;;;4993196;28;20484;-62
2021/01/29 07:21:07;;;;;;;6.88;1.95;;;23.10;86.10;;;;;;4993064;28;20612;-57
2021/01/29 07:24:01;;;;;;;7.03;2.42;;;23.10;86.20;;;;;;4993013;28;20046;-59
2021/01/29 07:26:51;;;;;;;4.25;1.60;;;23.10;86.10;;;;;;4993237;28;20066;-59
2021/01/29 07:29:53;;;;;;;4.85;2.47;;;23.00;86.10;;;;;;4991493;28;20167;-57
2021/01/29 07:32:29;;;;;;;5.53;2.30;;;23.00;86.20;;;;;;4992998;28;20034;-60
2021/01/29 07:35:07;;;;;;;4.78;2.38;;;23.10;86.20;;;;;;4991342;28;20061;-60
2021/01/29 07:37:34;;;;;;;9.32;2.10;;;23.00;86.20;;;;;;4992845;28;20022;-59
2021/01/29 07:40:08;;;;;;;7.35;2.50;;;23.00;86.20;;;;;;4992867;28;20030;-60
2021/01/29 07:42:56;;;;;;;5.88;2.08;;;23.10;86.30;;;;;;4992113;28;20561;-60
2021/01/29 07:46:09;;;;;;;7.05;2.35;;;23.00;86.30;;;;;;4992831;28;20031;-58
2021/01/29 07:49:13;;;;;;;4.60;2.00;;;23.00;86.20;;;;;;4990986;28;20453;-59
2021/01/29 07:52:13;;;;;;;4.03;2.00;;;23.00;86.30;;;;;;4992705;28;20022;-57
2021/01/29 07:55:05;;;;;;;4.82;2.30;;;23.00;86.30;;;;;;4992543;28;20038;-55
2021/01/29 07:58:02;;;;;;;5.60;1.85;;;23.00;86.30;;;;;;4992985;28;20045;-58
2021/01/29 08:00:54;;;;;;;4.75;1.88;;;23.00;86.30;;;;;;4992780;28;20488;-58
2021/01/29 08:04:05;;;;;;;5.72;2.00;;;23.00;86.30;;;;;;4992806;28;20107;-58
2021/01/29 08:07:02;;;;;;;6.38;2.05;;;23.00;86.30;;;;;;4982592;28;20611;-58
2021/01/29 08:09:39;;;;;;;4.68;2.17;;;23.00;86.30;;;;;;4990689;28;20543;-57
2021/01/29 08:12:12;;;;;;;6.05;2.00;;;23.00;86.40;;;;;;4992600;28;20026;-59
2021/01/29 08:15:19;;;;;;;6.63;2.28;;;23.00;86.40;;;;;;4975695;28;20062;-59
2021/01/29 08:18:01;;;;;;;3.67;1.52;;;23.00;86.40;;;;;;4992728;28;20087;-57
2021/01/29 08:20:57;;;;;;;4.82;1.77;;;23.00;86.40;;;;;;4992773;28;20027;-61
2021/01/29 08:23:59;;;;;;;7.00;2.50;;;23.00;86.40;;;;;;4991907;28;20049;-60
2021/01/29 08:26:40;;;;;;;6.07;2.03;;;23.00;87.40;;;;;;4988550;28;20170;-58
2021/01/29 08:29:13;;;;;;;4.25;1.83;;;23.00;86.80;;;;;;4991934;28;20034;-59
2021/01/29 08:31:46;;;;;;;3.80;1.83;;;23.00;86.80;;;;;;4992549;28;20022;-57
2021/01/29 08:34:42;;;;;;;6.32;2.50;;;23.00;86.90;;;;;;4992106;28;20049;-57
2021/01/29 08:37:56;;;;;;;6.07;2.33;;;23.00;86.90;;;;;;4991538;28;20089;-59
2021/01/29 08:40:29;;;;;;;5.43;2.30;;;23.00;86.80;;;;;;4972823;28;20057;-55
2021/01/29 08:42:59;;;;;;;5.78;2.33;;;23.00;86.90;;;;;;4991738;28;20108;-58
2021/01/29 08:46:21;;;;;;;5.38;1.98;;;23.00;86.70;;;;;;4992108;28;20037;-59
2021/01/29 08:49:36;;;;;;;6.00;2.17;;;23.00;86.80;;;;;;4970795;28;20189;-58
2021/01/29 08:52:12;;;;;;;5.63;2.10;;;23.00;86.90;;;;;;4975611;28;20061;-60
2021/01/29 08:54:39;;;;;;;5.15;2.13;;;23.00;86.80;;;;;;4991890;28;20533;-60
2021/01/29 08:57:41;;;;;;;8.05;2.10;;;23.00;86.70;;;;;;4991876;28;20080;-63
2021/01/29 09:00:21;;;;;;;5.03;2.30;;;23.10;86.60;;;;;;4985503;28;20097;-62
2021/01/29 09:03:18;;;;;;;4.88;1.58;;;23.10;86.70;;;;;;4992049;28;20054;-58
2021/01/29 09:05:49;;;;;;;7.10;2.50;;;23.10;86.70;;;;;;4991828;28;20030;-59
2021/01/29 09:08:20;;;;;;;5.93;2.40;;;23.10;87.50;;;;;;4998129;28;20026;-58
2021/01/29 09:10:56;;;;;;;9.52;2.70;;;23.10;87.30;;;;;;5010071;28;20331;-56
2021/01/29 09:13:26;;;;;;;6.95;2.00;;;23.10;87.10;;;;;;5009969;28;20034;-59
2021/01/29 09:16:03;;;;;;;6.18;2.00;;;23.00;87.10;;;;;;5011537;28;20029;-59
2021/01/29 09:18:44;;;;;;;7.28;2.20;;;23.10;87.10;;;;;;5011540;28;20057;-59
2021/01/29 09:21:17;;;;;;;5.50;1.75;;;23.10;87.00;;;;;;5011536;28;20072;-61
2021/01/29 09:24:05;;;;;;;5.97;2.15;;;23.00;87.10;;;;;;5015182;28;20087;-59
2021/01/29 09:27:13;;;;;;;4.80;2.17;;;23.10;87.20;;;;;;5015470;28;20026;-62
2021/01/29 09:29:51;;;;;;;5.15;2.05;;;23.10;87.10;;;;;;5014949;28;20441;-60
2021/01/29 09:32:43;;;;;;;7.60;3.17;;;23.00;87.10;;;;;;5015198;28;20026;-56
2021/01/29 09:35:24;;;;;;;6.45;2.40;;;23.00;87.10;;;;;;5014314;28;20049;-58
2021/01/29 09:37:54;;;;;;;5.90;2.15;;;23.00;87.10;;;;;;5015258;28;20333;-56
2021/01/29 09:40:27;;;;;;;5.53;2.58;;;23.00;87.20;;;;;;5015503;28;20406;-53
2021/01/29 09:43:12;;;;;;;5.63;2.13;;;23.00;87.20;;;;;;5015341;28;20108;-57
2021/01/29 09:45:41;;;;;;;4.03;1.65;;;23.00;87.30;;;;;;5015444;28;20050;-54
2021/01/29 09:48:13;;;;;;;5.63;1.90;;;23.00;87.30;;;;;;5014758;28;20452;-61
2021/01/29 09:50:41;;;;;;;5.68;1.83;;;23.00;87.30;;;;;;5015103;28;20029;-55
2021/01/29 09:53:08;;;;;;;4.95;1.70;;;23.00;87.30;;;;;;5014482;28;20069;-54
2021/01/29 09:55:53;;;;;;;5.32;2.00;;;23.00;87.30;;;;;;5014893;28;20033;-54
2021/01/29 09:58:42;;;;;;;6.28;2.30;;;23.00;87.40;;;;;;5014600;28;20026;-58
2021/01/29 10:01:16;;;;;;;5.45;2.20;;;23.00;87.40;;;;;;5014510;28;20033;-56
2021/01/29 10:03:55;;;;;;;6.85;2.20;;;23.00;87.40;;;;;;5014810;28;20457;-53
2021/01/29 10:06:38;;;;;;;5.18;1.90;;;23.00;87.30;;;;;;5014871;28;20388;-56
2021/01/29 10:09:22;;;;;;;8.07;1.83;;;23.00;87.30;;;;;;5011029;28;20040;-56
2021/01/29 10:12:03;;;;;;;4.95;1.95;;;23.00;87.30;;;;;;5013826;28;20032;-57
2021/01/29 10:15:14;;;;;;;6.20;2.05;;;23.00;87.30;;;;;;5014270;28;20037;-57
2021/01/29 10:18:03;;;;;;;6.20;2.38;;;23.00;87.30;;;;;;4991554;28;20056;-59
2021/01/29 10:20:34;;;;;;;5.05;2.38;;;23.00;87.40;;;;;;5014437;28;20182;-57
2021/01/29 10:23:31;;;;;;;6.45;2.40;;;23.00;88.00;;;;;;5014099;28;20037;-60
2021/01/29 10:26:09;;;;;;;4.65;1.65;;;23.00;87.30;;;;;;5014166;28;20034;-59
2021/01/29 10:28:52;;;;;;;6.80;2.17;;;23.00;87.60;;;;;;5014243;28;20412;-58
2021/01/29 10:31:23;;;;;;;5.50;2.13;;;22.90;87.60;;;;;;5014026;28;20072;-57
2021/01/29 10:34:02;;;;;;;7.17;2.10;;;22.90;87.60;;;;;;5013887;28;20362;-60
2021/01/29 10:36:32;;;;;;;7.95;1.77;;;23.00;87.50;;;;;;5014096;28;20392;-56
2021/01/29 10:39:25;;;;;;;4.47;2.03;;;23.00;87.50;;;;;;5013902;28;20096;-55
2021/01/29 10:42:09;;;;;;;5.47;1.90;;;23.00;87.50;;;;;;5011845;28;20033;-60
2021/01/29 10:44:38;;;;;;;5.75;2.20;;;22.90;87.70;;;;;;5013832;28;20169;-60
2021/01/29 10:47:21;;;;;;;4.93;1.65;;;22.90;87.60;;;;;;5013683;28;20101;-58
2021/01/29 10:50:16;;;;;;;3.70;1.83;;;22.90;87.60;;;;;;5014016;28;20092;-56
2021/01/29 10:53:02;;;;;;;5.03;1.63;;;22.90;87.60;;;;;;5013675;28;20079;-58
2021/01/29 10:56:15;;;;;;;4.95;2.03;;;22.90;87.80;;;;;;5013694;28;20025;-56
2021/01/29 10:59:24;;;;;;;5.40;2.05;;;22.90;87.70;;;;;;5012761;28;20034;-59
2021/01/29 11:02:05;;;;;;;7.00;2.15;;;22.90;87.70;;;;;;4956044;28;20055;-61
2021/01/29 11:04:33;;;;;;;4.30;1.88;;;22.90;87.60;;;;;;5011022;28;20030;-57
2021/01/29 11:07:27;;;;;;;5.75;1.92;;;22.90;87.60;;;;;;5013393;28;20068;-62
2021/01/29 11:10:08;;;;;;;4.20;1.67;;;22.90;87.50;;;;;;5013219;28;20138;-56
2021/01/29 11:12:44;;;;;;;4.70;1.92;;;22.90;87.50;;;;;;5012220;28;20057;-59
2021/01/29 11:15:45;;;;;;;4.57;2.00;;;22.90;87.50;;;;;;5013277;28;20046;-60
2021/01/29 11:18:22;;;;;;;6.07;1.85;;;22.90;87.50;;;;;;5013470;28;20472;-56
2021/01/29 11:20:51;;;;;;;5.22;1.80;;;22.90;87.60;;;;;;5013435;28;20026;-61
2021/01/29 11:24:13;;;;;;;4.80;1.80;;;22.90;87.60;;;;;;5013072;28;20488;-58
2021/01/29 11:26:55;;;;;;;2.70;1.25;;;22.90;87.60;;;;;;4961743;28;20050;-58
2021/01/29 11:29:43;;;;;;;4.68;2.00;;;22.90;87.80;;;;;;5013253;28;20022;-57
2021/01/29 11:32:32;;;;;;;4.40;1.65;;;22.90;87.60;;;;;;5013426;28;20022;-59
2021/01/29 11:35:06;;;;;;;4.72;1.63;;;22.90;87.80;;;;;;5012970;28;20034;-60
2021/01/29 11:38:01;;;;;;;4.07;1.63;;;22.90;87.90;;;;;;5013020;28;20046;-59
2021/01/29 11:40:53;;;;;;;6.43;2.28;;;22.90;88.70;;;;;;5012951;28;20469;-61
2021/01/29 11:43:32;;;;;;;;;;;22.90;88.10;;;;;;5013125;28;20026;-60
2021/01/29 11:46:30;;;;;;;4.90;1.77;;;22.90;88.00;;;;;;5012936;28;19906;-61
2021/01/29 11:49:07;;;;;;;6.00;2.42;;;22.90;88.10;;;;;;5008843;28;20040;-60
2021/01/29 11:51:52;;;;;;;4.88;2.33;;;22.90;88.00;;;;;;5012970;28;20403;-57
2021/01/29 11:54:50;;;;;;;6.22;2.10;;;22.90;88.20;;;;;;5012485;28;20029;-61
2021/01/29 11:57:46;;;;;;;3.60;1.58;;;22.90;88.20;;;;;;5012352;28;20030;-59
2021/01/29 12:00:27;;;;;;;5.90;2.22;;;22.90;88.10;;;;;;5010669;28;20030;-60
2021/01/29 12:03:22;;;;;;;6.38;2.00;;;22.90;88.30;;;;;;5012303;28;20022;-56
2021/01/29 12:06:07;;;;;;;6.57;1.90;;;22.90;88.30;;;;;;5012785;28;20034;-60
2021/01/29 12:09:03;;;;;;;6.82;1.95;;;22.90;88.30;;;;;;5012467;28;20021;-59
2021/01/29 12:11:44;;;;;;;4.05;1.63;;;22.90;88.50;;;;;;5007066;28;20108;-61
2021/01/29 12:14:17;;;;;;;3.75;1.90;;;22.90;88.40;;;;;;5012278;28;20045;-61
2021/01/29 12:16:53;;;;;;;5.15;2.03;;;22.90;88.40;;;;;;5012335;28;20496;-59
2021/01/29 12:19:44;;;;;;;3.75;1.45;;;22.90;88.40;;;;;;5012358;28;20048;-58
2021/01/29 12:22:32;;;;;;;5.38;1.98;;;22.90;88.40;;;;;;5012233;28;20026;-59
2021/01/29 12:24:59;;;;;;;5.50;2.28;;;22.80;88.60;;;;;;5012145;28;20131;-58
2021/01/29 12:27:47;;;;;;;2.80;1.33;;;22.90;88.60;;;;;;5012189;28;20232;-62
2021/01/29 12:30:39;;;;;;;5.15;1.70;;;22.90;88.60;;;;;;5012427;28;20515;-57
2021/01/29 12:33:18;;;;;;;5.20;1.70;;;22.90;88.60;;;;;;5011950;28;20484;-58
2021/01/29 12:35:51;;;;;;;3.95;1.73;;;22.80;88.40;;;;;;5012343;28;20038;-55
2021/01/29 12:38:40;;;;;;;3.83;1.88;;;22.80;89.00;;;;;;5012330;28;20025;-58
2021/01/29 12:41:07;;;;;;;4.43;2.05;;;22.80;88.70;;;;;;5011887;28;20030;-60
2021/01/29 12:43:45;;;;;;;5.80;2.15;;;22.80;88.80;;;;;;5012254;28;20139;-61
2021/01/29 12:46:45;;;;;;;7.13;2.15;;;22.80;88.90;;;;;;5012286;28;20032;-60
2021/01/29 12:49:24;;;;;;;5.88;1.98;;;22.80;88.90;;;;;;5011654;28;20084;-59
2021/01/29 12:52:20;;;;;;;7.10;2.35;;;22.80;88.90;;;;;;5012003;28;20030;-57
2021/01/29 12:54:56;;;;;;;6.13;2.70;;;22.80;89.20;;;;;;5010076;28;20068;-58
2021/01/29 12:57:28;;;;;;;5.95;2.13;;;22.80;89.20;;;;;;5016079;28;20030;-52
2021/01/29 13:00:39;;;;;;;4.78;1.95;;;22.80;89.40;;;;;;5016344;28;20036;-59
2021/01/29 13:03:43;;;;;;;7.40;2.10;;;22.80;89.50;;;;;;5006857;28;20033;-59
2021/01/29 13:06:39;;;;;;;11.25;2.80;;;22.80;89.60;;;;;;5016064;28;20036;-57
2021/01/29 13:09:33;;;;;;;6.50;2.65;;;22.80;89.40;;;;;;5012208;28;20067;-58
2021/01/29 13:12:11;;;;;;;10.00;2.35;;;22.80;89.30;;;;;;5015635;28;20084;-57
2021/01/29 13:15:17;;;;;;;7.43;2.25;;;22.80;89.20;;;;;;5013360;28;20483;-54
2021/01/29 13:17:48;;;;;;;6.72;2.15;;;22.80;89.20;;;;;;4992551;28;20080;-55
2021/01/29 13:20:30;;;;;;;6.18;2.63;;;22.80;89.50;;;;;;5011263;28;20079;-58
2021/01/29 13:23:19;;;;;;;7.15;2.47;;;22.80;89.40;;;;;;5011487;28;20026;-53
2021/01/29 13:26:05;;;;;;;6.35;2.25;;;22.80;89.40;;;;;;5009972;28;20053;-56
2021/01/29 13:28:39;;;;;;;6.32;2.35;;;22.80;89.40;;;;;;5005428;28;20030;-56
2021/01/29 13:31:35;;;;;;;8.13;3.15;;;22.80;89.80;;;;;;5011035;28;20510;-60
2021/01/29 13:34:13;;;;;;;6.13;2.28;;;22.80;89.50;;;;;;5013918;28;20037;-56
2021/01/29 13:37:17;;;;;;;9.20;2.63;;;22.80;89.50;;;;;;5011577;28;20030;-55
2021/01/29 13:39:45;;;;;;;9.23;2.42;;;22.80;89.60;;;;;;5000590;28;20045;-58
2021/01/29 13:42:21;;;;;;;9.05;2.75;;;22.80;89.60;;;;;;5010590;28;20484;-55
2021/01/29 13:44:54;;;;;;;8.70;2.97;;;22.80;89.60;;;;;;5013191;28;20046;-58
2021/01/29 13:47:23;;;;;;;7.43;2.58;;;22.80;89.70;;;;;;5007502;28;20475;-60
2021/01/29 13:49:51;;;;;;;9.02;2.38;;;22.80;90.00;;;;;;5013227;28;20460;-56
2021/01/29 13:52:36;;;;;;;7.05;2.47;;;22.80;89.80;;;;;;5012862;28;20480;-59
2021/01/29 13:55:38;;;;;;;10.35;2.88;;;22.80;89.70;;;;;;5012869;28;20437;-54
2021/01/29 13:58:13;;;;;;;9.98;2.75;;;22.80;89.70;;;;;;5006584;28;20034;-56
2021/01/29 14:01:04;;;;;;;10.20;2.85;;;22.80;89.70;;;;;;5013923;28;20037;-56
2021/01/29 14:04:03;;;;;;;8.75;2.75;;;22.80;89.60;;;;;;5005672;28;20028;-58
2021/01/29 14:06:35;;;;;;;8.98;2.55;;;22.80;89.70;;;;;;5011374;28;20100;-55
2021/01/29 14:09:05;;;;;;;11.45;2.50;;;22.80;89.80;;;;;;5011367;28;20390;-56